sensor_id;sensor_type;location;lat;lon;timestamp;P1;durP1;ratioP1;P2;durP2;ratioP2
66593;SDS011;53450;42.584;23.366;2023-05-16T00:00:19;19.65;;;13.02;;
66593;SDS011;53450;42.584;23.366;2023-05-16T00:02:45;16.92;;;13.85;;
66593;SDS011;53450;42.584;23.366;2023-05-16T00:05:11;21.25;;;13.23;;
66593;SDS011;53450;42.584;23.366;2023-05-16T00:07:44;21.75;;;13.45;;
66593;SDS011;53450;42.584;23.366;2023-05-16T00:10:12;21.60;;;14.05;;
66593;SDS011;53450;42.584;23.366;2023-05-16T00:12:38;24.20;;;14.70;;
66593;SDS011;53450;42.584;23.366;2023-05-16T00:15:05;21.38;;;13.57;;
66593;SDS011;53450;42.584;23.366;2023-05-16T00:17:33;17.67;;;11.38;;
66593;SDS011;53450;42.584;23.366;2023-05-16T00:20:00;18.90;;;14.05;;
66593;SDS011;53450;42.584;23.366;2023-05-16T00:22:26;19.80;;;13.60;;
66593;SDS011;53450;42.584;23.366;2023-05-16T00:24:52;21.50;;;14.25;;
66593;SDS011;53450;42.584;23.366;2023-05-16T00:27:18;29.95;;;15.27;;
66593;SDS011;53450;42.584;23.366;2023-05-16T00:29:43;25.25;;;13.93;;
66593;SDS011;53450;42.584;23.366;2023-05-16T00:32:09;19.08;;;14.48;;
66593;SDS011;53450;42.584;23.366;2023-05-16T00:34:35;16.42;;;12.85;;
66593;SDS011;53450;42.584;23.366;2023-05-16T00:37:01;21.85;;;12.32;;
66593;SDS011;53450;42.584;23.366;2023-05-16T00:39:26;18.65;;;11.82;;
66593;SDS011;53450;42.584;23.366;2023-05-16T00:41:55;22.60;;;13.45;;
66593;SDS011;53450;42.584;23.366;2023-05-16T00:44:21;23.42;;;12.85;;
66593;SDS011;53450;42.584;23.366;2023-05-16T00:46:47;16.38;;;11.65;;
66593;SDS011;53450;42.584;23.366;2023-05-16T00:49:38;19.40;;;10.95;;
66593;SDS011;53450;42.584;23.366;2023-05-16T00:52:04;25.13;;;12.25;;
66593;SDS011;53450;42.584;23.366;2023-05-16T00:54:30;18.98;;;13.10;;
66593;SDS011;53450;42.584;23.366;2023-05-16T00:57:21;16.10;;;13.33;;
66593;SDS011;53450;42.584;23.366;2023-05-16T01:00:12;18.95;;;14.20;;
66593;SDS011;53450;42.584;23.366;2023-05-16T01:02:40;24.02;;;14.07;;
66593;SDS011;53450;42.584;23.366;2023-05-16T01:05:06;18.90;;;14.18;;
66593;SDS011;53450;42.584;23.366;2023-05-16T01:07:57;27.75;;;14.20;;
66593;SDS011;53450;42.584;23.366;2023-05-16T01:11:01;18.55;;;13.60;;
66593;SDS011;53450;42.584;23.366;2023-05-16T01:13:40;19.27;;;13.23;;
66593;SDS011;53450;42.584;23.366;2023-05-16T01:16:39;23.10;;;14.90;;
66593;SDS011;53450;42.584;23.366;2023-05-16T01:22:02;16.00;;;12.75;;
66593;SDS011;53450;42.584;23.366;2023-05-16T01:24:33;17.48;;;11.18;;
66593;SDS011;53450;42.584;23.366;2023-05-16T01:27:04;15.85;;;10.90;;
66593;SDS011;53450;42.584;23.366;2023-05-16T01:29:32;15.68;;;10.95;;
66593;SDS011;53450;42.584;23.366;2023-05-16T01:32:23;17.00;;;9.93;;
66593;SDS011;53450;42.584;23.366;2023-05-16T01:34:49;17.42;;;10.40;;
66593;SDS011;53450;42.584;23.366;2023-05-16T01:37:18;14.10;;;9.68;;
66593;SDS011;53450;42.584;23.366;2023-05-16T01:42:26;15.05;;;10.05;;
66593;SDS011;53450;42.584;23.366;2023-05-16T01:45:14;17.48;;;9.52;;
66593;SDS011;53450;42.584;23.366;2023-05-16T01:47:59;18.88;;;8.98;;
66593;SDS011;53450;42.584;23.366;2023-05-16T01:50:33;14.23;;;9.23;;
66593;SDS011;53450;42.584;23.366;2023-05-16T01:53:05;25.83;;;10.90;;
66593;SDS011;53450;42.584;23.366;2023-05-16T01:55:43;17.60;;;10.32;;
66593;SDS011;53450;42.584;23.366;2023-05-16T01:58:11;35.53;;;17.15;;
66593;SDS011;53450;42.584;23.366;2023-05-16T02:00:41;39.88;;;18.58;;
66593;SDS011;53450;42.584;23.366;2023-05-16T02:03:13;23.23;;;12.27;;
66593;SDS011;53450;42.584;23.366;2023-05-16T02:05:39;23.33;;;13.05;;
66593;SDS011;53450;42.584;23.366;2023-05-16T02:08:05;29.13;;;16.33;;
66593;SDS011;53450;42.584;23.366;2023-05-16T02:10:30;32.83;;;15.18;;
66593;SDS011;53450;42.584;23.366;2023-05-16T02:12:58;17.42;;;11.77;;
66593;SDS011;53450;42.584;23.366;2023-05-16T02:15:23;23.02;;;11.82;;
66593;SDS011;53450;42.584;23.366;2023-05-16T02:17:49;23.90;;;12.90;;
66593;SDS011;53450;42.584;23.366;2023-05-16T02:20:15;19.83;;;10.90;;
66593;SDS011;53450;42.584;23.366;2023-05-16T02:22:41;14.52;;;9.02;;
66593;SDS011;53450;42.584;23.366;2023-05-16T02:25:12;15.48;;;11.23;;
66593;SDS011;53450;42.584;23.366;2023-05-16T02:27:40;12.57;;;8.15;;
66593;SDS011;53450;42.584;23.366;2023-05-16T02:30:07;17.48;;;8.55;;
66593;SDS011;53450;42.584;23.366;2023-05-16T02:32:34;13.30;;;9.05;;
66593;SDS011;53450;42.584;23.366;2023-05-16T02:35:00;19.33;;;9.35;;
66593;SDS011;53450;42.584;23.366;2023-05-16T02:37:26;17.58;;;10.30;;
66593;SDS011;53450;42.584;23.366;2023-05-16T02:39:51;22.55;;;11.20;;
66593;SDS011;53450;42.584;23.366;2023-05-16T02:42:17;18.98;;;10.38;;
66593;SDS011;53450;42.584;23.366;2023-05-16T02:44:43;23.00;;;8.70;;
66593;SDS011;53450;42.584;23.366;2023-05-16T02:47:08;17.83;;;8.35;;
66593;SDS011;53450;42.584;23.366;2023-05-16T02:49:35;13.05;;;8.32;;
66593;SDS011;53450;42.584;23.366;2023-05-16T02:52:00;23.52;;;9.93;;
66593;SDS011;53450;42.584;23.366;2023-05-16T02:54:26;18.65;;;9.80;;
66593;SDS011;53450;42.584;23.366;2023-05-16T02:56:52;24.58;;;14.18;;
66593;SDS011;53450;42.584;23.366;2023-05-16T02:59:18;13.60;;;9.65;;
66593;SDS011;53450;42.584;23.366;2023-05-16T03:01:43;18.40;;;9.88;;
66593;SDS011;53450;42.584;23.366;2023-05-16T03:04:09;16.00;;;9.93;;
66593;SDS011;53450;42.584;23.366;2023-05-16T03:06:34;20.25;;;9.73;;
66593;SDS011;53450;42.584;23.366;2023-05-16T03:09:00;13.13;;;8.80;;
66593;SDS011;53450;42.584;23.366;2023-05-16T03:11:25;21.88;;;9.60;;
66593;SDS011;53450;42.584;23.366;2023-05-16T03:13:53;16.05;;;10.00;;
66593;SDS011;53450;42.584;23.366;2023-05-16T03:16:18;19.20;;;10.65;;
66593;SDS011;53450;42.584;23.366;2023-05-16T03:18:44;16.40;;;9.68;;
66593;SDS011;53450;42.584;23.366;2023-05-16T03:21:10;22.58;;;10.10;;
66593;SDS011;53450;42.584;23.366;2023-05-16T03:23:35;19.85;;;10.23;;
66593;SDS011;53450;42.584;23.366;2023-05-16T03:26:03;20.65;;;11.55;;
66593;SDS011;53450;42.584;23.366;2023-05-16T03:28:29;16.05;;;9.90;;
66593;SDS011;53450;42.584;23.366;2023-05-16T03:30:54;14.15;;;9.77;;
66593;SDS011;53450;42.584;23.366;2023-05-16T03:33:20;13.45;;;10.32;;
66593;SDS011;53450;42.584;23.366;2023-05-16T03:35:46;19.35;;;9.30;;
66593;SDS011;53450;42.584;23.366;2023-05-16T03:38:11;17.25;;;10.00;;
66593;SDS011;53450;42.584;23.366;2023-05-16T03:40:38;16.45;;;9.80;;
66593;SDS011;53450;42.584;23.366;2023-05-16T03:43:04;19.33;;;9.45;;
66593;SDS011;53450;42.584;23.366;2023-05-16T03:45:30;19.25;;;10.13;;
66593;SDS011;53450;42.584;23.366;2023-05-16T03:47:56;20.10;;;9.98;;
66593;SDS011;53450;42.584;23.366;2023-05-16T03:50:22;16.77;;;9.30;;
66593;SDS011;53450;42.584;23.366;2023-05-16T03:52:47;18.92;;;9.05;;
66593;SDS011;53450;42.584;23.366;2023-05-16T03:55:13;19.08;;;9.48;;
66593;SDS011;53450;42.584;23.366;2023-05-16T03:57:39;16.73;;;9.15;;
66593;SDS011;53450;42.584;23.366;2023-05-16T04:00:06;12.20;;;8.68;;
66593;SDS011;53450;42.584;23.366;2023-05-16T04:02:37;12.30;;;9.02;;
66593;SDS011;53450;42.584;23.366;2023-05-16T04:05:05;18.33;;;9.77;;
66593;SDS011;53450;42.584;23.366;2023-05-16T04:07:32;18.00;;;9.73;;
66593;SDS011;53450;42.584;23.366;2023-05-16T04:09:58;10.70;;;9.00;;
66593;SDS011;53450;42.584;23.366;2023-05-16T04:12:23;14.88;;;9.52;;
66593;SDS011;53450;42.584;23.366;2023-05-16T04:14:49;17.10;;;9.40;;
66593;SDS011;53450;42.584;23.366;2023-05-16T04:17:15;13.77;;;9.70;;
66593;SDS011;53450;42.584;23.366;2023-05-16T04:19:41;16.13;;;9.75;;
66593;SDS011;53450;42.584;23.366;2023-05-16T04:22:06;20.85;;;8.57;;
66593;SDS011;53450;42.584;23.366;2023-05-16T04:24:32;18.13;;;9.88;;
66593;SDS011;53450;42.584;23.366;2023-05-16T04:26:58;26.05;;;10.18;;
66593;SDS011;53450;42.584;23.366;2023-05-16T04:29:23;19.10;;;9.27;;
66593;SDS011;53450;42.584;23.366;2023-05-16T04:31:49;15.45;;;8.80;;
66593;SDS011;53450;42.584;23.366;2023-05-16T04:34:15;26.77;;;8.95;;
66593;SDS011;53450;42.584;23.366;2023-05-16T04:36:41;12.68;;;8.32;;
66593;SDS011;53450;42.584;23.366;2023-05-16T04:39:07;14.25;;;9.20;;
66593;SDS011;53450;42.584;23.366;2023-05-16T04:41:32;21.23;;;13.02;;
66593;SDS011;53450;42.584;23.366;2023-05-16T04:44:25;13.80;;;8.80;;
66593;SDS011;53450;42.584;23.366;2023-05-16T04:46:51;18.83;;;9.60;;
66593;SDS011;53450;42.584;23.366;2023-05-16T04:49:19;17.48;;;11.18;;
66593;SDS011;53450;42.584;23.366;2023-05-16T04:51:46;13.65;;;8.70;;
66593;SDS011;53450;42.584;23.366;2023-05-16T04:54:12;15.55;;;9.07;;
66593;SDS011;53450;42.584;23.366;2023-05-16T04:56:38;14.40;;;9.27;;
66593;SDS011;53450;42.584;23.366;2023-05-16T04:59:04;19.23;;;9.90;;
66593;SDS011;53450;42.584;23.366;2023-05-16T05:01:30;11.23;;;8.68;;
66593;SDS011;53450;42.584;23.366;2023-05-16T05:03:55;12.45;;;8.43;;
66593;SDS011;53450;42.584;23.366;2023-05-16T05:06:21;15.15;;;9.43;;
66593;SDS011;53450;42.584;23.366;2023-05-16T05:08:47;24.55;;;10.23;;
66593;SDS011;53450;42.584;23.366;2023-05-16T05:11:13;12.88;;;8.82;;
66593;SDS011;53450;42.584;23.366;2023-05-16T05:13:39;16.42;;;9.35;;
66593;SDS011;53450;42.584;23.366;2023-05-16T05:16:05;15.70;;;8.80;;
66593;SDS011;53450;42.584;23.366;2023-05-16T05:18:31;17.40;;;10.30;;
66593;SDS011;53450;42.584;23.366;2023-05-16T05:20:57;22.60;;;9.20;;
66593;SDS011;53450;42.584;23.366;2023-05-16T05:23:22;21.52;;;9.68;;
66593;SDS011;53450;42.584;23.366;2023-05-16T05:25:49;20.25;;;9.77;;
66593;SDS011;53450;42.584;23.366;2023-05-16T05:28:14;14.90;;;9.15;;
66593;SDS011;53450;42.584;23.366;2023-05-16T05:31:08;18.90;;;10.23;;
66593;SDS011;53450;42.584;23.366;2023-05-16T05:33:59;16.85;;;9.50;;
66593;SDS011;53450;42.584;23.366;2023-05-16T05:36:25;15.90;;;8.65;;
66593;SDS011;53450;42.584;23.366;2023-05-16T05:38:51;15.55;;;8.50;;
66593;SDS011;53450;42.584;23.366;2023-05-16T05:41:17;17.75;;;8.85;;
66593;SDS011;53450;42.584;23.366;2023-05-16T05:43:43;19.33;;;10.77;;
66593;SDS011;53450;42.584;23.366;2023-05-16T05:46:08;11.68;;;7.28;;
66593;SDS011;53450;42.584;23.366;2023-05-16T05:48:34;11.55;;;7.55;;
66593;SDS011;53450;42.584;23.366;2023-05-16T05:51:00;12.52;;;7.43;;
66593;SDS011;53450;42.584;23.366;2023-05-16T05:53:25;17.23;;;7.93;;
66593;SDS011;53450;42.584;23.366;2023-05-16T05:55:51;16.30;;;8.15;;
66593;SDS011;53450;42.584;23.366;2023-05-16T05:58:17;19.67;;;10.57;;
66593;SDS011;53450;42.584;23.366;2023-05-16T06:00:43;15.68;;;10.25;;
66593;SDS011;53450;42.584;23.366;2023-05-16T06:03:09;17.13;;;10.85;;
66593;SDS011;53450;42.584;23.366;2023-05-16T06:05:38;29.15;;;9.95;;
66593;SDS011;53450;42.584;23.366;2023-05-16T06:08:04;18.58;;;11.82;;
66593;SDS011;53450;42.584;23.366;2023-05-16T06:10:30;18.70;;;11.63;;
66593;SDS011;53450;42.584;23.366;2023-05-16T06:12:55;17.40;;;10.82;;
66593;SDS011;53450;42.584;23.366;2023-05-16T06:15:21;12.38;;;9.52;;
66593;SDS011;53450;42.584;23.366;2023-05-16T06:17:46;18.02;;;10.38;;
66593;SDS011;53450;42.584;23.366;2023-05-16T06:20:12;13.50;;;9.98;;
66593;SDS011;53450;42.584;23.366;2023-05-16T06:22:38;20.00;;;12.35;;
66593;SDS011;53450;42.584;23.366;2023-05-16T06:25:04;22.30;;;12.88;;
66593;SDS011;53450;42.584;23.366;2023-05-16T06:27:30;18.10;;;9.38;;
66593;SDS011;53450;42.584;23.366;2023-05-16T06:29:55;21.80;;;8.88;;
66593;SDS011;53450;42.584;23.366;2023-05-16T06:32:21;12.07;;;7.38;;
66593;SDS011;53450;42.584;23.366;2023-05-16T06:34:47;17.90;;;6.75;;
66593;SDS011;53450;42.584;23.366;2023-05-16T06:37:13;18.70;;;6.93;;
66593;SDS011;53450;42.584;23.366;2023-05-16T06:39:39;14.43;;;6.50;;
66593;SDS011;53450;42.584;23.366;2023-05-16T06:42:04;18.25;;;6.57;;
66593;SDS011;53450;42.584;23.366;2023-05-16T06:44:31;13.43;;;6.30;;
66593;SDS011;53450;42.584;23.366;2023-05-16T06:46:56;17.35;;;6.43;;
66593;SDS011;53450;42.584;23.366;2023-05-16T06:49:48;10.68;;;5.85;;
66593;SDS011;53450;42.584;23.366;2023-05-16T06:52:15;15.45;;;6.53;;
66593;SDS011;53450;42.584;23.366;2023-05-16T06:54:41;12.57;;;5.82;;
66593;SDS011;53450;42.584;23.366;2023-05-16T06:57:06;12.32;;;7.15;;
66593;SDS011;53450;42.584;23.366;2023-05-16T06:59:33;9.88;;;6.07;;
66593;SDS011;53450;42.584;23.366;2023-05-16T07:02:00;21.50;;;7.50;;
66593;SDS011;53450;42.584;23.366;2023-05-16T07:04:26;11.40;;;6.18;;
66593;SDS011;53450;42.584;23.366;2023-05-16T07:06:52;9.05;;;6.07;;
66593;SDS011;53450;42.584;23.366;2023-05-16T07:09:18;7.88;;;6.20;;
66593;SDS011;53450;42.584;23.366;2023-05-16T07:11:44;10.80;;;6.63;;
66593;SDS011;53450;42.584;23.366;2023-05-16T07:14:09;14.45;;;7.13;;
66593;SDS011;53450;42.584;23.366;2023-05-16T07:16:35;12.98;;;7.00;;
66593;SDS011;53450;42.584;23.366;2023-05-16T11:20:29;11.15;;;6.30;;
66593;SDS011;53450;42.584;23.366;2023-05-16T11:25:53;16.48;;;6.50;;
66593;SDS011;53450;42.584;23.366;2023-05-16T11:28:20;13.07;;;7.32;;
66593;SDS011;53450;42.584;23.366;2023-05-16T15:30:29;29.65;;;17.92;;
66593;SDS011;53450;42.584;23.366;2023-05-16T15:33:19;35.13;;;17.02;;
66593;SDS011;53450;42.584;23.366;2023-05-16T15:35:45;40.33;;;16.42;;
66593;SDS011;53450;42.584;23.366;2023-05-16T15:38:10;40.33;;;20.55;;
66593;SDS011;53450;42.584;23.366;2023-05-16T15:40:36;36.03;;;19.80;;
66593;SDS011;53450;42.584;23.366;2023-05-16T15:43:02;29.15;;;18.90;;
66593;SDS011;53450;42.584;23.366;2023-05-16T15:45:28;34.55;;;20.10;;
66593;SDS011;53450;42.584;23.366;2023-05-16T15:47:53;37.03;;;21.05;;
66593;SDS011;53450;42.584;23.366;2023-05-16T15:50:19;40.17;;;21.40;;
66593;SDS011;53450;42.584;23.366;2023-05-16T15:52:45;30.77;;;20.95;;
66593;SDS011;53450;42.584;23.366;2023-05-16T15:55:11;42.38;;;22.75;;
66593;SDS011;53450;42.584;23.366;2023-05-16T15:57:36;168.23;;;87.43;;
66593;SDS011;53450;42.584;23.366;2023-05-16T16:00:03;87.32;;;47.70;;
66593;SDS011;53450;42.584;23.366;2023-05-16T16:02:36;76.88;;;38.20;;
66593;SDS011;53450;42.584;23.366;2023-05-16T16:05:02;66.10;;;36.92;;
66593;SDS011;53450;42.584;23.366;2023-05-16T16:07:28;53.40;;;32.45;;
66593;SDS011;53450;42.584;23.366;2023-05-16T16:09:53;60.28;;;29.65;;
66593;SDS011;53450;42.584;23.366;2023-05-16T16:12:19;41.53;;;23.35;;
66593;SDS011;53450;42.584;23.366;2023-05-16T16:14:45;47.13;;;21.20;;
66593;SDS011;53450;42.584;23.366;2023-05-16T16:17:13;41.50;;;18.67;;
66593;SDS011;53450;42.584;23.366;2023-05-16T16:19:40;41.08;;;17.50;;
66593;SDS011;53450;42.584;23.366;2023-05-16T16:22:06;35.58;;;18.80;;
66593;SDS011;53450;42.584;23.366;2023-05-16T16:24:31;42.85;;;18.48;;
66593;SDS011;53450;42.584;23.366;2023-05-16T16:26:57;29.73;;;19.45;;
66593;SDS011;53450;42.584;23.366;2023-05-16T16:29:23;35.30;;;20.98;;
66593;SDS011;53450;42.584;23.366;2023-05-16T16:31:50;27.73;;;16.90;;
66593;SDS011;53450;42.584;23.366;2023-05-16T16:34:17;46.47;;;16.73;;
66593;SDS011;53450;42.584;23.366;2023-05-16T16:36:42;31.38;;;17.33;;
66593;SDS011;53450;42.584;23.366;2023-05-16T16:39:08;31.88;;;16.75;;
66593;SDS011;53450;42.584;23.366;2023-05-16T16:41:34;23.15;;;16.27;;
66593;SDS011;53450;42.584;23.366;2023-05-16T16:44:00;32.95;;;17.05;;
66593;SDS011;53450;42.584;23.366;2023-05-16T16:46:26;28.67;;;18.13;;
66593;SDS011;53450;42.584;23.366;2023-05-16T16:48:51;27.92;;;17.83;;
66593;SDS011;53450;42.584;23.366;2023-05-16T16:51:18;33.22;;;22.25;;
66593;SDS011;53450;42.584;23.366;2023-05-16T16:53:45;36.10;;;23.63;;
66593;SDS011;53450;42.584;23.366;2023-05-16T16:56:11;29.70;;;19.83;;
66593;SDS011;53450;42.584;23.366;2023-05-16T16:58:36;29.83;;;18.35;;
66593;SDS011;53450;42.584;23.366;2023-05-16T17:01:02;34.72;;;18.85;;
66593;SDS011;53450;42.584;23.366;2023-05-16T17:03:28;30.45;;;15.65;;
66593;SDS011;53450;42.584;23.366;2023-05-16T17:05:54;34.28;;;17.60;;
66593;SDS011;53450;42.584;23.366;2023-05-16T17:08:19;39.42;;;19.15;;
66593;SDS011;53450;42.584;23.366;2023-05-16T17:10:45;36.03;;;19.63;;
66593;SDS011;53450;42.584;23.366;2023-05-16T17:13:11;33.60;;;20.13;;
66593;SDS011;53450;42.584;23.366;2023-05-16T17:15:38;32.17;;;21.40;;
66593;SDS011;53450;42.584;23.366;2023-05-16T17:18:04;25.73;;;16.65;;
66593;SDS011;53450;42.584;23.366;2023-05-16T17:20:33;28.30;;;15.52;;
66593;SDS011;53450;42.584;23.366;2023-05-16T17:23:00;24.10;;;15.23;;
66593;SDS011;53450;42.584;23.366;2023-05-16T17:25:26;25.63;;;13.88;;
66593;SDS011;53450;42.584;23.366;2023-05-16T17:27:53;27.50;;;13.02;;
66593;SDS011;53450;42.584;23.366;2023-05-16T17:30:19;21.63;;;12.35;;
66593;SDS011;53450;42.584;23.366;2023-05-16T17:32:46;29.70;;;19.60;;
66593;SDS011;53450;42.584;23.366;2023-05-16T17:35:11;36.55;;;20.50;;
66593;SDS011;53450;42.584;23.366;2023-05-16T17:37:37;44.25;;;22.35;;
66593;SDS011;53450;42.584;23.366;2023-05-16T17:40:03;32.63;;;16.23;;
66593;SDS011;53450;42.584;23.366;2023-05-16T17:42:30;21.60;;;13.50;;
66593;SDS011;53450;42.584;23.366;2023-05-16T17:44:55;32.15;;;14.40;;
66593;SDS011;53450;42.584;23.366;2023-05-16T17:47:21;25.70;;;14.10;;
66593;SDS011;53450;42.584;23.366;2023-05-16T17:49:49;26.15;;;14.27;;
66593;SDS011;53450;42.584;23.366;2023-05-16T17:52:15;21.65;;;14.52;;
66593;SDS011;53450;42.584;23.366;2023-05-16T17:54:40;30.10;;;17.13;;
66593;SDS011;53450;42.584;23.366;2023-05-16T17:57:34;23.77;;;15.60;;
66593;SDS011;53450;42.584;23.366;2023-05-16T18:00:00;22.65;;;15.68;;
66593;SDS011;53450;42.584;23.366;2023-05-16T18:02:33;24.20;;;16.52;;
66593;SDS011;53450;42.584;23.366;2023-05-16T18:04:59;26.95;;;17.65;;
66593;SDS011;53450;42.584;23.366;2023-05-16T18:07:25;24.08;;;15.85;;
66593;SDS011;53450;42.584;23.366;2023-05-16T18:09:51;22.63;;;13.90;;
66593;SDS011;53450;42.584;23.366;2023-05-16T18:12:17;37.35;;;20.45;;
66593;SDS011;53450;42.584;23.366;2023-05-16T18:14:43;36.20;;;19.55;;
66593;SDS011;53450;42.584;23.366;2023-05-16T18:17:08;37.97;;;20.00;;
66593;SDS011;53450;42.584;23.366;2023-05-16T18:19:37;72.05;;;33.90;;
66593;SDS011;53450;42.584;23.366;2023-05-16T18:22:03;31.85;;;20.15;;
66593;SDS011;53450;42.584;23.366;2023-05-16T18:24:32;26.48;;;18.70;;
66593;SDS011;53450;42.584;23.366;2023-05-16T18:26:58;24.38;;;15.98;;
66593;SDS011;53450;42.584;23.366;2023-05-16T18:29:50;32.75;;;16.67;;
66593;SDS011;53450;42.584;23.366;2023-05-16T18:32:41;27.73;;;15.95;;
66593;SDS011;53450;42.584;23.366;2023-05-16T18:35:07;21.55;;;12.13;;
66593;SDS011;53450;42.584;23.366;2023-05-16T18:37:33;29.00;;;15.05;;
66593;SDS011;53450;42.584;23.366;2023-05-16T18:39:59;27.52;;;18.10;;
66593;SDS011;53450;42.584;23.366;2023-05-16T18:42:24;27.23;;;14.90;;
66593;SDS011;53450;42.584;23.366;2023-05-16T18:44:51;18.92;;;13.15;;
66593;SDS011;53450;42.584;23.366;2023-05-16T18:47:17;20.05;;;10.48;;
66593;SDS011;53450;42.584;23.366;2023-05-16T18:49:43;20.02;;;11.23;;
66593;SDS011;53450;42.584;23.366;2023-05-16T18:52:09;20.88;;;11.20;;
66593;SDS011;53450;42.584;23.366;2023-05-16T18:55:00;21.33;;;11.57;;
66593;SDS011;53450;42.584;23.366;2023-05-16T18:57:26;27.45;;;15.35;;
66593;SDS011;53450;42.584;23.366;2023-05-16T18:59:52;19.92;;;11.25;;
66593;SDS011;53450;42.584;23.366;2023-05-16T19:02:17;21.55;;;11.77;;
66593;SDS011;53450;42.584;23.366;2023-05-16T19:04:44;16.13;;;9.73;;
66593;SDS011;53450;42.584;23.366;2023-05-16T19:07:15;17.15;;;9.18;;
66593;SDS011;53450;42.584;23.366;2023-05-16T19:09:41;20.92;;;9.07;;
66593;SDS011;53450;42.584;23.366;2023-05-16T19:12:06;19.95;;;9.15;;
66593;SDS011;53450;42.584;23.366;2023-05-16T19:14:32;14.73;;;9.25;;
66593;SDS011;53450;42.584;23.366;2023-05-16T19:16:58;19.67;;;10.25;;
66593;SDS011;53450;42.584;23.366;2023-05-16T19:19:23;21.30;;;11.50;;
66593;SDS011;53450;42.584;23.366;2023-05-16T19:21:49;23.15;;;13.52;;
66593;SDS011;53450;42.584;23.366;2023-05-16T19:24:15;34.03;;;16.70;;
66593;SDS011;53450;42.584;23.366;2023-05-16T19:26:41;21.08;;;10.23;;
66593;SDS011;53450;42.584;23.366;2023-05-16T19:29:06;24.60;;;13.20;;
66593;SDS011;53450;42.584;23.366;2023-05-16T19:31:32;24.63;;;11.82;;
66593;SDS011;53450;42.584;23.366;2023-05-16T19:33:58;15.60;;;9.77;;
66593;SDS011;53450;42.584;23.366;2023-05-16T19:36:23;24.60;;;8.85;;
66593;SDS011;53450;42.584;23.366;2023-05-16T19:38:49;27.20;;;12.90;;
66593;SDS011;53450;42.584;23.366;2023-05-16T19:41:14;19.67;;;8.88;;
66593;SDS011;53450;42.584;23.366;2023-05-16T19:43:40;14.70;;;6.63;;
66593;SDS011;53450;42.584;23.366;2023-05-16T19:46:06;20.67;;;11.02;;
66593;SDS011;53450;42.584;23.366;2023-05-16T19:48:31;19.17;;;8.13;;
66593;SDS011;53450;42.584;23.366;2023-05-16T19:50:57;15.60;;;6.78;;
66593;SDS011;53450;42.584;23.366;2023-05-16T19:53:23;20.15;;;10.55;;
66593;SDS011;53450;42.584;23.366;2023-05-16T19:55:48;15.13;;;7.70;;
66593;SDS011;53450;42.584;23.366;2023-05-16T19:58:14;19.05;;;6.85;;
66593;SDS011;53450;42.584;23.366;2023-05-16T20:00:40;10.80;;;6.57;;
66593;SDS011;53450;42.584;23.366;2023-05-16T20:03:31;11.27;;;6.85;;
66593;SDS011;53450;42.584;23.366;2023-05-16T20:05:59;17.35;;;9.68;;
66593;SDS011;53450;42.584;23.366;2023-05-16T20:08:24;15.60;;;6.40;;
66593;SDS011;53450;42.584;23.366;2023-05-16T20:10:50;10.98;;;5.80;;
66593;SDS011;53450;42.584;23.366;2023-05-16T20:13:15;19.90;;;6.15;;
66593;SDS011;53450;42.584;23.366;2023-05-16T20:15:44;16.77;;;6.25;;
66593;SDS011;53450;42.584;23.366;2023-05-16T20:18:10;13.25;;;6.55;;
66593;SDS011;53450;42.584;23.366;2023-05-16T20:20:36;19.42;;;8.15;;
66593;SDS011;53450;42.584;23.366;2023-05-16T20:23:02;17.55;;;8.88;;
66593;SDS011;53450;42.584;23.366;2023-05-16T20:25:27;11.52;;;7.25;;
66593;SDS011;53450;42.584;23.366;2023-05-16T20:27:54;15.57;;;7.20;;
66593;SDS011;53450;42.584;23.366;2023-05-16T20:30:19;13.02;;;7.45;;
66593;SDS011;53450;42.584;23.366;2023-05-16T20:32:45;14.80;;;7.57;;
66593;SDS011;53450;42.584;23.366;2023-05-16T20:35:11;14.50;;;9.20;;
66593;SDS011;53450;42.584;23.366;2023-05-16T20:37:37;13.38;;;8.25;;
66593;SDS011;53450;42.584;23.366;2023-05-16T20:40:03;18.65;;;8.85;;
66593;SDS011;53450;42.584;23.366;2023-05-16T20:42:30;9.75;;;6.88;;
66593;SDS011;53450;42.584;23.366;2023-05-16T20:45:21;15.05;;;6.95;;
66593;SDS011;53450;42.584;23.366;2023-05-16T20:50:39;16.95;;;7.68;;
66593;SDS011;53450;42.584;23.366;2023-05-16T20:53:05;20.27;;;7.65;;
66593;SDS011;53450;42.584;23.366;2023-05-16T20:55:30;20.63;;;8.10;;
66593;SDS011;53450;42.584;23.366;2023-05-16T20:57:56;19.30;;;10.45;;
66593;SDS011;53450;42.584;23.366;2023-05-16T21:00:47;17.23;;;6.97;;
66593;SDS011;53450;42.584;23.366;2023-05-16T21:03:15;13.13;;;5.55;;
66593;SDS011;53450;42.584;23.366;2023-05-16T21:05:41;11.27;;;5.30;;
66593;SDS011;53450;42.584;23.366;2023-05-16T21:08:07;19.63;;;5.95;;
66593;SDS011;53450;42.584;23.366;2023-05-16T21:10:32;19.23;;;6.25;;
66593;SDS011;53450;42.584;23.366;2023-05-16T21:12:58;16.33;;;6.25;;
66593;SDS011;53450;42.584;23.366;2023-05-16T21:15:23;7.35;;;5.00;;
66593;SDS011;53450;42.584;23.366;2023-05-16T21:17:49;13.90;;;5.75;;
66593;SDS011;53450;42.584;23.366;2023-05-16T21:20:15;15.23;;;6.05;;
66593;SDS011;53450;42.584;23.366;2023-05-16T21:22:41;15.68;;;6.90;;
66593;SDS011;53450;42.584;23.366;2023-05-16T21:25:06;18.95;;;7.25;;
66593;SDS011;53450;42.584;23.366;2023-05-16T21:27:32;13.68;;;7.28;;
66593;SDS011;53450;42.584;23.366;2023-05-16T21:29:58;16.67;;;5.78;;
66593;SDS011;53450;42.584;23.366;2023-05-16T21:32:23;12.98;;;5.95;;
66593;SDS011;53450;42.584;23.366;2023-05-16T21:34:51;12.73;;;4.90;;
66593;SDS011;53450;42.584;23.366;2023-05-16T21:37:16;21.73;;;5.07;;
66593;SDS011;53450;42.584;23.366;2023-05-16T21:39:42;15.68;;;4.88;;
66593;SDS011;53450;42.584;23.366;2023-05-16T21:42:08;14.23;;;4.60;;
66593;SDS011;53450;42.584;23.366;2023-05-16T21:44:33;8.00;;;5.00;;
66593;SDS011;53450;42.584;23.366;2023-05-16T21:46:59;8.60;;;4.22;;
66593;SDS011;53450;42.584;23.366;2023-05-16T21:49:25;11.43;;;4.65;;
66593;SDS011;53450;42.584;23.366;2023-05-16T21:51:50;12.55;;;4.68;;
66593;SDS011;53450;42.584;23.366;2023-05-16T21:54:16;13.52;;;4.68;;
66593;SDS011;53450;42.584;23.366;2023-05-16T21:56:41;10.75;;;4.30;;
66593;SDS011;53450;42.584;23.366;2023-05-16T21:59:07;12.18;;;4.07;;
66593;SDS011;53450;42.584;23.366;2023-05-16T22:01:33;15.88;;;4.80;;
66593;SDS011;53450;42.584;23.366;2023-05-16T22:03:58;10.98;;;4.60;;
66593;SDS011;53450;42.584;23.366;2023-05-16T22:06:24;14.57;;;4.35;;
66593;SDS011;53450;42.584;23.366;2023-05-16T22:08:50;15.52;;;4.57;;
66593;SDS011;53450;42.584;23.366;2023-05-16T22:11:16;17.33;;;4.90;;
66593;SDS011;53450;42.584;23.366;2023-05-16T22:13:43;11.52;;;4.70;;
66593;SDS011;53450;42.584;23.366;2023-05-16T22:16:09;15.13;;;5.22;;
66593;SDS011;53450;42.584;23.366;2023-05-16T22:18:35;9.13;;;5.32;;
66593;SDS011;53450;42.584;23.366;2023-05-16T22:21:01;9.07;;;5.00;;
66593;SDS011;53450;42.584;23.366;2023-05-16T22:23:26;10.55;;;4.57;;
66593;SDS011;53450;42.584;23.366;2023-05-16T22:26:17;18.43;;;4.50;;
66593;SDS011;53450;42.584;23.366;2023-05-16T22:29:08;15.13;;;5.68;;
66593;SDS011;53450;42.584;23.366;2023-05-16T22:31:35;16.00;;;6.15;;